createdAt,value
2024-02-06T00:00:04.254Z,0.000000
2024-02-06T00:01:00.712Z,0.000000
2024-02-06T00:02:00.765Z,0.000000
2024-02-06T00:06:00.834Z,0.000000
2024-02-06T00:07:00.805Z,0.000000
2024-02-06T00:08:01.059Z,0.000000
2024-02-06T00:09:00.699Z,0.000000
2024-02-06T00:10:04.317Z,0.000000
2024-02-06T00:11:00.762Z,0.000000
2024-02-06T00:12:00.816Z,0.000000
2024-02-06T00:13:00.761Z,0.000000
2024-02-06T00:14:00.810Z,0.000000
2024-02-06T00:15:03.707Z,0.000000
2024-02-06T00:16:00.952Z,0.000000
2024-02-06T00:17:00.789Z,0.000000
2024-02-06T00:18:00.886Z,0.000000
2024-02-06T00:19:00.883Z,0.000000
2024-02-06T00:20:04.190Z,0.000000
2024-02-06T00:21:00.818Z,0.000000
2024-02-06T00:22:00.942Z,0.000000
2024-02-06T00:23:00.815Z,0.000000
2024-02-06T00:24:00.946Z,0.000000
2024-02-06T00:25:03.850Z,0.000000
2024-02-06T00:26:00.921Z,0.000000
2024-02-06T00:27:00.888Z,0.000000
2024-02-06T00:28:01.000Z,0.000000
2024-02-06T00:29:00.860Z,0.000000
2024-02-06T00:30:04.194Z,0.000000
2024-02-06T00:31:00.945Z,0.000000
2024-02-06T00:32:01.007Z,0.000000
2024-02-06T00:33:00.957Z,0.000000
2024-02-06T00:34:01.252Z,0.000000
2024-02-06T00:35:03.841Z,0.000000
2024-02-06T00:36:01.008Z,0.000000
2024-02-06T00:37:01.056Z,0.000000
2024-02-06T00:38:01.059Z,0.000000
2024-02-06T00:39:01.029Z,0.000000
2024-02-06T00:40:04.472Z,0.000000
2024-02-06T00:41:01.014Z,0.000000
2024-02-06T00:42:01.107Z,0.000000
2024-02-06T00:43:01.081Z,0.000000
2024-02-06T00:44:01.140Z,0.000000
2024-02-06T00:45:03.843Z,0.000000
2024-02-06T00:46:01.180Z,0.000000
2024-02-06T00:47:01.089Z,0.000000
2024-02-06T00:48:01.388Z,0.000000
2024-02-06T00:49:01.329Z,0.000000
2024-02-06T00:50:06.661Z,0.000000
2024-02-06T00:51:01.160Z,0.000000
2024-02-06T00:52:01.251Z,0.000000
2024-02-06T00:53:01.095Z,0.000000
2024-02-06T00:54:01.194Z,0.000000
2024-02-06T00:55:04.262Z,0.000000
2024-02-06T00:56:01.185Z,0.000000
2024-02-06T00:57:01.139Z,0.000000
2024-02-06T00:58:01.300Z,0.000000
2024-02-06T00:59:01.165Z,0.000000
2024-02-06T01:00:04.676Z,0.000000
2024-02-06T01:01:00.271Z,0.000000
2024-02-06T01:02:00.398Z,0.000000
2024-02-06T01:03:00.201Z,0.000000
2024-02-06T01:04:00.420Z,0.000000
2024-02-06T01:05:03.261Z,0.000000
2024-02-06T01:06:00.337Z,0.000000
2024-02-06T01:07:00.339Z,0.000000
2024-02-06T01:08:00.435Z,0.000000
2024-02-06T01:09:00.254Z,0.000000
2024-02-06T01:10:03.821Z,0.000000
2024-02-06T01:11:00.288Z,0.000000
2024-02-06T01:12:00.381Z,0.000000
2024-02-06T01:13:00.344Z,0.000000
2024-02-06T01:14:00.460Z,0.000000
2024-02-06T01:15:03.238Z,0.000000
2024-02-06T01:16:00.493Z,0.000000
2024-02-06T01:17:00.356Z,0.000000
2024-02-06T01:18:00.459Z,0.000000
2024-02-06T01:19:00.403Z,0.000000
2024-02-06T01:20:03.975Z,0.000000
2024-02-06T01:21:00.404Z,0.000000
2024-02-06T01:22:00.531Z,0.000000
2024-02-06T01:23:00.401Z,0.000000
2024-02-06T01:24:00.477Z,0.000000
2024-02-06T01:25:03.497Z,0.000000
2024-02-06T01:26:00.499Z,0.000000
2024-02-06T01:27:00.429Z,0.000000
2024-02-06T01:28:00.554Z,0.000000
2024-02-06T01:29:00.415Z,0.000000
2024-02-06T01:30:04.403Z,0.000000
2024-02-06T01:31:00.521Z,0.000000
2024-02-06T01:32:00.567Z,0.000000
2024-02-06T01:33:00.621Z,0.000000
2024-02-06T01:34:00.781Z,0.000000
2024-02-06T01:35:03.373Z,0.000000
2024-02-06T01:36:00.603Z,0.000000
2024-02-06T01:37:00.544Z,0.000000
2024-02-06T01:38:00.569Z,0.000000
2024-02-06T01:39:00.524Z,0.000000
2024-02-06T01:40:03.964Z,0.000000
2024-02-06T01:41:00.577Z,0.000000
2024-02-06T01:42:00.632Z,0.000000
2024-02-06T01:43:00.702Z,0.000000
2024-02-06T01:44:00.638Z,0.000000
2024-02-06T01:45:04.188Z,0.000000
2024-02-06T01:46:00.746Z,0.000000
2024-02-06T01:47:00.691Z,0.000000
2024-02-06T01:48:00.776Z,0.000000
2024-02-06T01:49:00.688Z,0.000000
2024-02-06T01:50:04.001Z,0.000000
2024-02-06T01:51:00.707Z,0.000000
2024-02-06T01:52:00.760Z,0.000000
2024-02-06T01:53:00.713Z,0.000000
2024-02-06T01:54:00.728Z,0.000000
2024-02-06T01:55:03.874Z,0.000000
2024-02-06T01:56:00.765Z,0.000000
2024-02-06T01:57:00.747Z,0.000000
2024-02-06T01:58:00.827Z,0.000000
2024-02-06T01:59:00.732Z,0.000000
2024-02-06T02:00:04.086Z,0.000000
2024-02-06T02:01:00.966Z,0.000000
2024-02-06T02:02:00.978Z,0.000000
2024-02-06T02:03:00.771Z,0.000000
2024-02-06T02:04:00.936Z,0.000000
2024-02-06T02:05:03.763Z,0.000000
2024-02-06T02:06:01.029Z,0.000000
2024-02-06T02:07:00.922Z,0.000000
2024-02-06T02:08:00.866Z,0.000000
2024-02-06T02:09:00.830Z,0.000000
2024-02-06T02:10:04.132Z,0.000000
2024-02-06T02:11:00.824Z,0.000000
2024-02-06T02:12:00.960Z,0.000000
2024-02-06T02:13:00.873Z,0.000000
2024-02-06T02:14:00.924Z,0.000000
2024-02-06T02:15:03.699Z,0.000000
2024-02-06T02:16:03.592Z,0.000000
2024-02-06T02:17:00.894Z,0.000000
2024-02-06T02:18:01.196Z,0.000000
2024-02-06T02:19:00.989Z,0.000000
2024-02-06T02:20:04.446Z,0.000000
2024-02-06T02:21:00.919Z,0.000000
2024-02-06T02:22:01.010Z,0.000000
2024-02-06T02:23:00.954Z,0.000000
2024-02-06T02:24:00.996Z,0.000000
2024-02-06T02:25:03.917Z,0.000000
2024-02-06T02:26:01.064Z,0.000000
2024-02-06T02:27:01.016Z,0.000000
2024-02-06T02:28:01.106Z,0.000000
2024-02-06T02:29:01.017Z,0.000000
2024-02-06T02:30:04.249Z,0.000000
2024-02-06T02:31:01.068Z,0.000000
2024-02-06T02:32:01.088Z,0.000000
2024-02-06T02:33:01.071Z,0.000000
2024-02-06T02:34:01.171Z,0.000000
2024-02-06T02:35:03.990Z,0.000000
2024-02-06T02:36:01.141Z,0.000000
2024-02-06T02:37:01.074Z,0.000000
2024-02-06T02:38:01.116Z,0.000000
2024-02-06T02:39:01.098Z,0.000000
2024-02-06T02:40:05.081Z,0.000000
2024-02-06T02:41:01.132Z,0.000000
2024-02-06T02:42:01.190Z,0.000000
2024-02-06T02:43:01.180Z,0.000000
2024-02-06T02:44:01.210Z,0.000000
2024-02-06T02:45:04.017Z,0.000000
2024-02-06T02:46:01.262Z,0.000000
2024-02-06T02:47:01.133Z,0.000000
2024-02-06T02:48:01.364Z,0.000000
2024-02-06T02:49:01.313Z,0.000000
2024-02-06T02:50:04.439Z,0.000000
2024-02-06T02:51:00.214Z,0.000000
2024-02-06T02:52:00.648Z,0.000000
2024-02-06T02:53:00.221Z,0.000000
2024-02-06T02:54:00.555Z,0.000000
2024-02-06T02:55:03.108Z,0.000000
2024-02-06T02:56:00.730Z,0.000000
2024-02-06T02:57:00.289Z,0.000000
2024-02-06T02:58:00.809Z,0.000000
2024-02-06T02:59:00.264Z,0.000000
2024-02-06T03:00:05.245Z,0.000000
2024-02-06T03:01:00.349Z,0.000000
2024-02-06T03:02:01.082Z,0.000000
2024-02-06T03:03:00.358Z,0.000000
2024-02-06T03:04:01.050Z,0.000000
2024-02-06T03:05:03.308Z,0.000000
2024-02-06T03:06:00.971Z,0.000000
2024-02-06T03:07:00.364Z,0.000000
2024-02-06T03:08:01.201Z,0.000000
2024-02-06T03:09:02.482Z,0.000000
2024-02-06T03:10:03.873Z,0.000000
2024-02-06T03:11:00.438Z,0.000000
2024-02-06T03:12:01.160Z,0.000000
2024-02-06T03:13:00.467Z,0.000000
2024-02-06T03:14:01.300Z,0.000000
2024-02-06T03:15:03.201Z,0.000000
2024-02-06T03:16:01.465Z,0.000000
2024-02-06T03:17:00.557Z,0.000000
2024-02-06T03:18:01.209Z,0.000000
2024-02-06T03:19:00.538Z,0.000000
2024-02-06T03:20:04.061Z,0.000000
2024-02-06T03:21:00.514Z,0.000000
2024-02-06T03:22:00.576Z,0.000000
2024-02-06T03:23:00.459Z,0.000000
2024-02-06T03:24:00.573Z,0.000000
2024-02-06T03:25:03.479Z,0.000000
2024-02-06T03:26:00.650Z,0.000000
2024-02-06T03:27:00.583Z,0.000000
2024-02-06T03:28:00.592Z,0.000000
2024-02-06T03:29:00.550Z,0.000000
2024-02-06T03:30:03.930Z,0.000000
2024-02-06T03:31:00.589Z,0.000000
2024-02-06T03:32:00.631Z,0.000000
2024-02-06T03:33:00.640Z,0.000000
2024-02-06T03:34:00.815Z,0.000000
2024-02-06T03:35:04.696Z,0.000000
2024-02-06T03:36:00.730Z,0.000000
2024-02-06T03:37:00.688Z,0.000000
2024-02-06T03:38:00.709Z,0.000000
2024-02-06T03:39:00.627Z,0.000000
2024-02-06T03:40:03.845Z,0.000000
2024-02-06T03:41:00.704Z,0.000000
2024-02-06T03:42:00.751Z,0.000000
2024-02-06T03:43:00.746Z,0.000000
2024-02-06T03:44:00.801Z,0.000000
2024-02-06T03:45:03.839Z,0.000000
2024-02-06T03:46:00.831Z,0.000000
2024-02-06T03:47:00.690Z,0.000000
2024-02-06T03:48:00.839Z,0.000000
2024-02-06T03:49:00.822Z,0.000000
2024-02-06T03:50:04.191Z,0.000000
2024-02-06T03:51:00.761Z,0.000000
2024-02-06T03:52:00.949Z,0.000000
2024-02-06T03:53:00.799Z,0.000000
2024-02-06T03:54:00.828Z,0.000000
2024-02-06T03:55:03.837Z,0.000000
2024-02-06T03:56:00.861Z,0.000000
2024-02-06T03:57:00.778Z,0.000000
2024-02-06T03:58:00.904Z,0.000000
2024-02-06T03:59:00.785Z,0.000000
2024-02-06T04:00:05.374Z,0.000000
2024-02-06T04:01:00.901Z,0.000000
2024-02-06T04:02:01.023Z,0.000000
2024-02-06T04:03:00.930Z,0.000000
2024-02-06T04:04:00.960Z,0.000000
2024-02-06T04:05:03.820Z,0.000000
2024-02-06T04:06:00.977Z,0.000000
2024-02-06T04:07:00.940Z,0.000000
2024-02-06T04:08:01.012Z,0.000000
2024-02-06T04:09:00.930Z,0.000000
2024-02-06T04:10:04.372Z,0.000000
2024-02-06T04:11:00.885Z,0.000000
2024-02-06T04:12:01.001Z,0.000000
2024-02-06T04:13:00.934Z,0.000000
2024-02-06T04:14:01.007Z,0.000000
2024-02-06T04:15:03.829Z,0.000000
2024-02-06T04:16:01.108Z,0.000000
2024-02-06T04:17:00.976Z,0.000000
2024-02-06T04:18:01.142Z,0.000000
2024-02-06T04:19:01.222Z,0.000000
2024-02-06T04:20:04.389Z,0.000000
2024-02-06T04:21:00.996Z,0.000000
2024-02-06T04:22:01.060Z,0.000000
2024-02-06T04:23:00.986Z,0.000000
2024-02-06T04:24:01.118Z,0.000000
2024-02-06T04:25:03.989Z,0.000000
2024-02-06T04:26:01.134Z,0.000000
2024-02-06T04:27:01.071Z,0.000000
2024-02-06T04:28:01.216Z,0.000000
2024-02-06T04:29:01.067Z,0.000000
2024-02-06T04:30:05.382Z,0.000000
2024-02-06T04:31:01.163Z,0.000000
2024-02-06T04:32:01.187Z,0.000000
2024-02-06T04:33:01.193Z,0.000000
2024-02-06T04:34:01.351Z,0.000000
2024-02-06T04:35:04.247Z,0.000000
2024-02-06T04:36:01.227Z,0.000000
2024-02-06T04:37:01.204Z,0.000000
2024-02-06T04:38:01.210Z,0.000000
2024-02-06T04:39:01.155Z,0.000000
2024-02-06T04:40:04.543Z,0.000000
2024-02-06T04:41:01.217Z,0.000000
2024-02-06T04:42:00.249Z,0.000000
2024-02-06T04:43:00.264Z,0.000000
2024-02-06T04:44:00.303Z,0.000000
2024-02-06T04:45:03.134Z,0.000000
2024-02-06T04:46:00.368Z,0.000000
2024-02-06T04:47:00.351Z,0.000000
2024-02-06T04:48:00.345Z,0.000000
2024-02-06T04:49:00.292Z,0.000000
2024-02-06T04:50:03.807Z,0.000000
2024-02-06T04:51:00.295Z,0.000000
2024-02-06T04:52:00.356Z,0.000000
2024-02-06T04:53:00.281Z,0.000000
2024-02-06T04:54:00.387Z,0.000000
2024-02-06T04:55:03.297Z,0.000000
2024-02-06T04:56:00.440Z,0.000000
2024-02-06T04:57:00.343Z,0.000000
2024-02-06T04:58:00.441Z,0.000000
2024-02-06T04:59:00.363Z,0.000000
2024-02-06T05:00:03.806Z,0.000000
2024-02-06T05:01:00.427Z,0.000000
2024-02-06T05:02:00.559Z,0.000000
2024-02-06T05:03:00.396Z,0.000000
2024-02-06T05:04:00.567Z,0.000000
2024-02-06T05:05:03.481Z,0.000000
2024-02-06T05:06:00.544Z,0.000000
2024-02-06T05:07:00.522Z,0.000000
2024-02-06T05:08:00.721Z,0.000000
2024-02-06T05:09:00.471Z,0.000000
2024-02-06T05:10:04.117Z,0.000000
2024-02-06T05:11:00.502Z,0.000000
2024-02-06T05:12:00.622Z,0.000000
2024-02-06T05:13:00.571Z,0.000000
2024-02-06T05:14:00.583Z,0.000000
2024-02-06T05:15:03.404Z,0.000000
2024-02-06T05:16:00.637Z,0.000000
2024-02-06T05:17:00.589Z,0.000000
2024-02-06T05:18:00.710Z,0.000000
2024-02-06T05:19:00.769Z,0.000000
2024-02-06T05:20:03.936Z,0.000000
2024-02-06T05:21:00.557Z,0.000000
2024-02-06T05:22:00.777Z,0.000000
2024-02-06T05:23:00.582Z,0.000000
2024-02-06T05:24:00.692Z,0.000000
2024-02-06T05:25:04.318Z,0.000000
2024-02-06T05:26:00.715Z,0.000000
2024-02-06T05:27:00.640Z,0.000000
2024-02-06T05:28:00.833Z,0.000000
2024-02-06T05:29:00.663Z,0.000000
2024-02-06T05:30:03.974Z,0.000000
2024-02-06T05:31:00.744Z,0.000000
2024-02-06T05:32:03.927Z,0.000000
2024-02-06T05:33:00.722Z,0.000000
2024-02-06T05:34:00.835Z,0.000000
2024-02-06T05:35:03.796Z,0.000000
2024-02-06T05:36:00.801Z,0.000000
2024-02-06T05:37:00.781Z,0.000000
2024-02-06T05:38:00.785Z,0.000000
2024-02-06T05:39:00.763Z,0.000000
2024-02-06T05:40:04.178Z,0.000000
2024-02-06T05:41:00.763Z,0.000000
2024-02-06T05:42:00.847Z,0.000000
2024-02-06T05:43:00.805Z,0.000000
2024-02-06T05:44:00.836Z,0.000000
2024-02-06T05:45:03.657Z,0.000000
2024-02-06T05:46:00.855Z,0.000000
2024-02-06T05:47:00.815Z,0.000000
2024-02-06T05:48:01.658Z,0.000000
2024-02-06T05:49:01.040Z,0.000000
2024-02-06T05:50:04.206Z,0.000000
2024-02-06T05:51:00.820Z,0.000000
2024-02-06T05:52:00.903Z,0.000000
2024-02-06T05:53:00.819Z,0.000000
2024-02-06T05:54:00.909Z,0.000000
2024-02-06T05:55:03.836Z,0.000000
2024-02-06T05:56:01.089Z,0.000000
2024-02-06T05:57:00.872Z,0.000000
2024-02-06T05:58:01.017Z,0.000000
2024-02-06T05:59:03.748Z,0.000000
2024-02-06T06:00:04.423Z,0.000000
2024-02-06T06:01:01.043Z,0.000000
2024-02-06T06:02:01.105Z,0.000000
2024-02-06T06:03:00.929Z,0.000000
2024-02-06T06:04:01.260Z,0.000000
2024-02-06T06:05:04.294Z,0.000000
2024-02-06T06:06:01.241Z,0.000000
2024-02-06T06:07:01.169Z,0.000000
2024-02-06T06:08:01.091Z,0.000000
2024-02-06T06:09:01.001Z,0.000000
2024-02-06T06:10:04.496Z,0.000000
2024-02-06T06:11:01.045Z,0.000000
2024-02-06T06:12:01.150Z,0.000000
2024-02-06T06:13:01.075Z,0.000000
2024-02-06T06:14:01.141Z,0.000000
2024-02-06T06:15:04.151Z,0.000000
2024-02-06T06:16:01.248Z,0.000000
2024-02-06T06:17:01.088Z,0.000000
2024-02-06T06:18:01.219Z,0.000000
2024-02-06T06:19:01.190Z,0.000000
2024-02-06T06:20:05.120Z,0.000000
2024-02-06T06:21:01.147Z,0.000000
2024-02-06T06:22:02.894Z,0.000000
2024-02-06T06:23:01.139Z,0.000000
2024-02-06T06:24:01.353Z,0.000000
2024-02-06T06:25:04.230Z,0.000000
2024-02-06T06:26:01.227Z,0.000000
2024-02-06T06:27:00.181Z,0.000000
2024-02-06T06:28:00.321Z,0.000000
2024-02-06T06:29:00.205Z,0.000000
2024-02-06T06:30:03.764Z,0.000000
2024-02-06T06:31:00.262Z,0.000000
2024-02-06T06:32:00.343Z,0.000000
2024-02-06T06:33:00.421Z,0.000000
2024-02-06T06:34:00.508Z,0.000000
2024-02-06T06:35:03.292Z,0.000000
2024-02-06T06:36:00.375Z,0.000000
2024-02-06T06:37:00.330Z,0.000000
2024-02-06T06:38:00.488Z,0.000000
2024-02-06T06:39:00.302Z,0.000000
2024-02-06T06:40:03.914Z,0.000000
2024-02-06T06:41:00.309Z,0.000000
2024-02-06T06:42:00.450Z,0.000000
2024-02-06T06:43:00.424Z,0.000000
2024-02-06T06:44:00.459Z,0.000000
2024-02-06T06:45:03.263Z,0.000000
2024-02-06T06:46:00.472Z,0.000000
2024-02-06T06:47:00.400Z,0.000000
2024-02-06T06:48:00.611Z,0.000000
2024-02-06T06:49:00.454Z,0.000000
2024-02-06T06:50:03.835Z,0.000000
2024-02-06T06:51:00.436Z,0.000000
2024-02-06T06:52:00.576Z,0.000000
2024-02-06T06:53:00.437Z,0.000000
2024-02-06T06:54:00.555Z,0.000000
2024-02-06T06:55:03.659Z,0.000000
2024-02-06T06:56:00.500Z,0.000000
2024-02-06T06:57:00.472Z,0.000000
2024-02-06T06:58:00.548Z,0.000000
2024-02-06T06:59:00.475Z,0.100000
2024-02-06T07:00:04.325Z,0.100000
2024-02-06T07:01:00.664Z,0.100000
2024-02-06T07:02:00.756Z,0.100000
2024-02-06T07:03:00.631Z,0.100000
2024-02-06T07:04:00.680Z,0.100000
2024-02-06T07:05:03.443Z,0.100000
2024-02-06T07:06:00.682Z,0.100000
2024-02-06T07:07:00.696Z,0.100000
2024-02-06T07:08:00.722Z,0.100000
2024-02-06T07:09:00.681Z,0.200000
2024-02-06T07:10:04.257Z,0.200000
2024-02-06T07:11:00.693Z,0.200000
2024-02-06T07:12:00.696Z,0.200000
2024-02-06T07:13:00.732Z,0.200000
2024-02-06T07:14:00.723Z,0.200000
2024-02-06T07:15:04.409Z,0.200000
2024-02-06T07:16:00.910Z,0.300000
2024-02-06T07:17:00.744Z,0.300000
2024-02-06T07:18:00.875Z,0.300000
2024-02-06T07:19:00.844Z,0.400000
2024-02-06T07:20:04.191Z,0.400000
2024-02-06T07:21:00.781Z,0.400000
2024-02-06T07:22:02.842Z,0.500000
2024-02-06T07:23:00.729Z,0.500000
2024-02-06T07:24:00.834Z,0.500000
2024-02-06T07:25:04.193Z,0.500000
2024-02-06T07:26:03.661Z,0.500000
2024-02-06T07:27:00.786Z,0.500000
2024-02-06T07:28:00.896Z,0.500000
2024-02-06T07:29:00.783Z,0.700000
2024-02-06T07:30:05.170Z,0.700000
2024-02-06T07:31:00.898Z,0.700000
2024-02-06T07:32:00.911Z,0.700000
2024-02-06T07:33:00.977Z,0.700000
2024-02-06T07:34:01.419Z,0.800000
2024-02-06T07:35:04.045Z,0.800000
2024-02-06T07:36:00.956Z,0.700000
2024-02-06T07:37:00.916Z,0.700000
2024-02-06T07:38:03.204Z,0.700000
2024-02-06T07:39:00.911Z,0.800000
2024-02-06T07:40:04.275Z,0.800000
2024-02-06T07:41:00.888Z,0.800000
2024-02-06T07:42:00.994Z,1.000000
2024-02-06T07:43:00.938Z,1.000000
2024-02-06T07:44:01.032Z,14.600000
2024-02-06T07:45:03.999Z,14.600000
2024-02-06T07:46:01.110Z,14.600000
2024-02-06T07:47:00.944Z,14.600000
2024-02-06T07:48:01.335Z,32.700000
2024-02-06T07:49:01.113Z,32.700000
2024-02-06T07:50:04.379Z,32.700000
2024-02-06T07:51:00.977Z,31.800000
2024-02-06T07:52:01.184Z,31.800000
2024-02-06T07:53:00.977Z,31.800000
2024-02-06T07:54:01.107Z,39.600000
2024-02-06T07:55:04.095Z,39.600000
2024-02-06T07:56:01.105Z,40.500000
2024-02-06T07:57:01.070Z,40.500000
2024-02-06T07:58:01.157Z,38.700000
2024-02-06T07:59:01.060Z,38.700000
2024-02-06T08:00:04.653Z,38.700000
2024-02-06T08:01:01.260Z,38.700000
2024-02-06T08:02:01.238Z,38.700000
2024-02-06T08:03:01.091Z,38.700000
2024-02-06T08:04:05.213Z,48.200000
2024-02-06T08:05:04.335Z,48.200000
2024-02-06T08:06:01.376Z,46.500000
2024-02-06T08:07:01.218Z,46.500000
2024-02-06T08:08:01.453Z,46.500000
2024-02-06T08:09:01.258Z,63.800000
2024-02-06T08:10:06.151Z,63.800000
2024-02-06T08:11:00.169Z,63.800000
2024-02-06T08:12:02.381Z,83.600000
2024-02-06T08:13:00.304Z,83.600000
2024-02-06T08:14:00.312Z,62.900000
2024-02-06T08:15:03.334Z,62.900000
2024-02-06T08:16:00.367Z,62.900000
2024-02-06T08:17:00.246Z,60.300000
2024-02-06T08:18:00.434Z,60.300000
2024-02-06T08:19:00.396Z,56.900000
2024-02-06T08:20:04.066Z,56.900000
2024-02-06T08:21:00.284Z,54.300000
2024-02-06T08:22:00.537Z,54.300000
2024-02-06T08:23:00.340Z,54.300000
2024-02-06T08:24:00.449Z,67.200000
2024-02-06T08:25:03.413Z,67.200000
2024-02-06T08:26:00.460Z,67.200000
2024-02-06T08:27:00.370Z,63.800000
2024-02-06T08:28:01.025Z,63.800000
2024-02-06T08:29:00.343Z,55.100000
2024-02-06T08:30:03.642Z,55.100000
2024-02-06T08:31:02.897Z,55.100000
2024-02-06T08:32:01.524Z,79.300000
2024-02-06T08:33:00.527Z,79.300000
2024-02-06T08:34:00.614Z,79.300000
2024-02-06T08:35:03.451Z,75.000000
2024-02-06T08:36:00.710Z,75.000000
2024-02-06T08:37:00.598Z,66.400000
2024-02-06T08:38:00.622Z,66.400000
2024-02-06T08:39:00.631Z,66.400000
2024-02-06T08:40:04.046Z,66.400000
2024-02-06T08:41:00.542Z,66.400000
2024-02-06T08:42:00.566Z,89.700000
2024-02-06T08:43:00.618Z,89.700000
2024-02-06T08:44:01.757Z,93.100000
2024-02-06T08:45:03.523Z,93.100000
2024-02-06T08:46:00.687Z,93.100000
2024-02-06T08:47:00.596Z,76.700000
2024-02-06T08:48:00.738Z,76.700000
2024-02-06T08:49:00.791Z,76.700000
2024-02-06T08:50:04.062Z,74.100000
2024-02-06T08:51:00.656Z,74.100000
2024-02-06T08:52:00.809Z,78.400000
2024-02-06T08:53:00.573Z,78.400000
2024-02-06T08:54:01.021Z,72.400000
2024-02-06T08:55:03.598Z,72.400000
2024-02-06T08:56:00.726Z,72.400000
2024-02-06T08:57:00.614Z,72.400000
2024-02-06T08:58:00.728Z,72.400000
2024-02-06T08:59:00.711Z,72.400000
2024-02-06T09:00:04.209Z,125.900000
2024-02-06T09:01:00.732Z,125.900000
2024-02-06T09:02:00.901Z,179.400000
2024-02-06T09:03:00.684Z,179.400000
2024-02-06T09:04:04.586Z,179.400000
2024-02-06T09:05:04.546Z,165.600000
2024-02-06T09:06:01.029Z,165.600000
2024-02-06T09:07:00.898Z,144.000000
2024-02-06T09:08:00.876Z,144.000000
2024-02-06T09:09:00.779Z,144.000000
2024-02-06T09:10:04.013Z,144.000000
2024-02-06T09:11:00.849Z,144.000000
2024-02-06T09:12:00.898Z,155.300000
2024-02-06T09:13:02.125Z,155.300000
2024-02-06T09:14:01.957Z,155.300000
2024-02-06T09:15:03.834Z,163.000000
2024-02-06T09:16:01.982Z,163.000000
2024-02-06T09:17:01.501Z,155.300000
2024-02-06T09:18:00.964Z,155.300000
2024-02-06T09:19:01.787Z,155.300000
2024-02-06T09:20:04.691Z,141.500000
2024-02-06T09:21:00.844Z,141.500000
2024-02-06T09:22:00.953Z,149.200000
2024-02-06T09:23:00.884Z,149.200000
2024-02-06T09:24:00.946Z,149.200000
2024-02-06T09:25:03.814Z,242.400000
2024-02-06T09:26:00.971Z,242.400000
2024-02-06T09:27:00.920Z,211.400000
2024-02-06T09:28:01.056Z,211.400000
2024-02-06T09:29:00.920Z,211.400000
2024-02-06T09:30:04.383Z,210.500000
2024-02-06T09:31:00.995Z,210.500000
2024-02-06T09:32:01.099Z,210.500000
2024-02-06T09:33:01.037Z,210.500000
2024-02-06T09:34:01.166Z,210.500000
2024-02-06T09:35:04.114Z,187.200000
2024-02-06T09:36:01.123Z,187.200000
2024-02-06T09:37:01.075Z,187.200000
2024-02-06T09:38:01.110Z,206.200000
2024-02-06T09:39:01.049Z,206.200000
2024-02-06T09:40:04.485Z,177.700000
2024-02-06T09:41:01.124Z,177.700000
2024-02-06T09:42:01.159Z,177.700000
2024-02-06T09:43:02.092Z,192.400000
2024-02-06T09:44:01.265Z,192.400000
2024-02-06T09:45:05.806Z,161.300000
2024-02-06T09:46:01.322Z,161.300000
2024-02-06T09:47:01.210Z,161.300000
2024-02-06T09:48:01.323Z,138.000000
2024-02-06T09:49:01.333Z,138.000000
2024-02-06T09:50:04.670Z,124.200000
2024-02-06T09:51:01.182Z,124.200000
2024-02-06T09:52:01.417Z,124.200000
2024-02-06T09:53:01.300Z,132.000000
2024-02-06T09:54:01.263Z,132.000000
2024-02-06T09:55:04.170Z,132.000000
2024-02-06T09:56:00.316Z,121.600000
2024-02-06T09:57:00.284Z,121.600000
2024-02-06T09:58:00.528Z,121.600000
2024-02-06T09:59:00.321Z,126.800000
2024-02-06T10:00:07.585Z,126.800000
2024-02-06T10:01:00.411Z,161.300000
2024-02-06T10:02:34.912Z,161.300000
2024-02-06T10:03:00.320Z,161.300000
2024-02-06T10:04:02.265Z,161.300000
2024-02-06T10:05:03.539Z,161.300000
2024-02-06T10:06:00.495Z,145.800000
2024-02-06T10:07:00.313Z,145.800000
2024-02-06T10:08:00.425Z,148.400000
2024-02-06T10:09:00.359Z,148.400000
2024-02-06T10:10:05.283Z,148.400000
2024-02-06T10:11:00.394Z,156.100000
2024-02-06T10:12:00.451Z,156.100000
2024-02-06T10:13:00.395Z,160.400000
2024-02-06T10:14:00.438Z,160.400000
2024-02-06T10:15:03.384Z,160.400000
2024-02-06T10:16:00.494Z,169.900000
2024-02-06T10:17:00.391Z,169.900000
2024-02-06T10:18:00.486Z,169.900000
2024-02-06T10:19:00.501Z,158.700000
2024-02-06T10:20:04.073Z,158.700000
2024-02-06T10:21:00.471Z,147.500000
2024-02-06T10:22:00.587Z,147.500000
2024-02-06T10:23:00.489Z,147.500000
2024-02-06T10:24:00.618Z,170.800000
2024-02-06T10:25:03.706Z,170.800000
2024-02-06T10:26:00.618Z,170.800000
2024-02-06T10:27:00.511Z,170.800000
2024-02-06T10:28:00.635Z,170.800000
2024-02-06T10:29:00.485Z,170.800000
2024-02-06T10:30:04.562Z,170.800000
2024-02-06T10:31:00.624Z,232.100000
2024-02-06T10:32:00.750Z,232.100000
2024-02-06T10:33:00.620Z,232.900000
2024-02-06T10:34:00.797Z,232.900000
2024-02-06T10:35:03.553Z,232.900000
2024-02-06T10:36:00.712Z,192.400000
2024-02-06T10:37:00.657Z,192.400000
2024-02-06T10:38:00.795Z,192.400000
2024-02-06T10:39:00.640Z,187.200000
2024-02-06T10:40:05.554Z,187.200000
2024-02-06T10:41:12.234Z,188.100000
2024-02-06T10:44:00.926Z,233.800000
2024-02-06T10:45:04.563Z,233.800000
2024-02-06T10:46:01.053Z,280.400000
2024-02-06T10:47:00.801Z,280.400000
2024-02-06T10:48:00.978Z,268.300000
2024-02-06T10:49:00.799Z,268.300000
2024-02-06T10:50:04.550Z,268.300000
2024-02-06T10:51:01.619Z,258.800000
2024-02-06T10:52:04.731Z,258.800000
2024-02-06T10:53:00.835Z,310.600000
2024-02-06T10:54:00.914Z,310.600000
2024-02-06T10:55:04.478Z,310.600000
2024-02-06T10:56:00.986Z,248.500000
2024-02-06T10:57:00.831Z,248.500000
2024-02-06T10:58:00.893Z,300.300000
2024-02-06T10:59:00.808Z,300.300000
2024-02-06T11:00:05.439Z,300.300000
2024-02-06T11:01:00.898Z,237.300000
2024-02-06T11:02:00.963Z,237.300000
2024-02-06T11:03:00.898Z,197.600000
2024-02-06T11:05:08.902Z,197.600000
2024-02-06T11:06:01.051Z,190.700000
2024-02-06T11:07:00.916Z,190.700000
2024-02-06T11:08:00.953Z,220.900000
2024-02-06T11:09:00.862Z,220.900000
2024-02-06T11:10:04.362Z,220.900000
2024-02-06T11:11:00.929Z,284.700000
2024-02-06T11:12:00.951Z,284.700000
2024-02-06T11:13:00.946Z,284.700000
2024-02-06T11:14:00.981Z,277.800000
2024-02-06T11:15:04.090Z,277.800000
2024-02-06T11:16:01.053Z,277.800000
2024-02-06T11:17:00.957Z,500.500000
2024-02-06T11:18:01.012Z,500.500000
2024-02-06T11:19:01.130Z,500.500000
2024-02-06T11:20:04.781Z,500.500000
2024-02-06T11:21:01.017Z,467.700000
2024-02-06T11:22:01.150Z,467.700000
2024-02-06T11:23:01.069Z,467.700000
2024-02-06T11:24:01.075Z,447.900000
2024-02-06T11:25:04.096Z,447.900000
2024-02-06T11:26:01.133Z,447.900000
2024-02-06T11:27:01.015Z,511.700000
2024-02-06T11:28:05.490Z,511.700000
2024-02-06T11:29:01.038Z,354.600000
2024-02-06T11:30:04.541Z,354.600000
2024-02-06T11:31:01.393Z,327.900000
2024-02-06T11:32:01.149Z,327.900000
2024-02-06T11:33:01.093Z,327.900000
2024-02-06T11:34:02.895Z,372.800000
2024-02-06T11:35:04.081Z,372.800000
2024-02-06T11:36:01.223Z,372.800000
2024-02-06T11:37:01.095Z,685.200000
2024-02-06T11:38:17.827Z,685.200000